createdAt,value
2023-03-29T00:02:20.396Z,6.10
2023-03-29T00:04:47.915Z,5.80
2023-03-29T00:07:16.038Z,5.60
2023-03-29T00:09:44.076Z,5.80
2023-03-29T00:12:11.712Z,5.67
2023-03-29T00:14:39.194Z,6.83
2023-03-29T00:17:07.162Z,6.40
2023-03-29T00:19:36.720Z,13.50
2023-03-29T00:22:08.395Z,6.67
2023-03-29T00:24:36.289Z,4.90
2023-03-29T00:27:03.825Z,4.50
2023-03-29T00:29:31.400Z,4.87
2023-03-29T00:31:58.966Z,5.10
2023-03-29T00:34:31.180Z,5.10
2023-03-29T00:36:58.879Z,4.63
2023-03-29T00:39:28.183Z,5.27
2023-03-29T00:41:56.077Z,5.30
2023-03-29T00:44:42.472Z,4.97
2023-03-29T00:47:09.923Z,4.17
2023-03-29T00:49:37.613Z,4.13
2023-03-29T00:52:04.946Z,3.80
2023-03-29T00:54:33.039Z,4.60
2023-03-29T00:57:04.166Z,4.13
2023-03-29T00:59:35.756Z,4.43
2023-03-29T01:02:07.448Z,4.37
2023-03-29T01:04:43.941Z,4.13
2023-03-29T01:07:24.646Z,4.37
2023-03-29T01:09:54.151Z,4.40
2023-03-29T01:12:23.267Z,4.63
2023-03-29T01:14:56.266Z,4.20
2023-03-29T01:17:25.734Z,4.50
2023-03-29T01:19:59.596Z,4.20
2023-03-29T01:22:46.095Z,4.83
2023-03-29T01:25:27.139Z,4.40
2023-03-29T01:28:15.863Z,4.77
2023-03-29T01:30:46.739Z,5.00
2023-03-29T01:33:21.330Z,6.00
2023-03-29T01:36:02.216Z,5.73
2023-03-29T01:38:49.737Z,5.40
2023-03-29T01:41:17.229Z,4.97
2023-03-29T01:44:02.468Z,4.83
2023-03-29T01:46:33.072Z,6.30
2023-03-29T01:49:02.801Z,4.60
2023-03-29T01:51:38.096Z,4.60
2023-03-29T01:54:08.745Z,4.83
2023-03-29T01:56:38.486Z,4.80
2023-03-29T01:59:08.449Z,4.40
2023-03-29T02:01:41.623Z,4.60
2023-03-29T02:04:13.221Z,4.23
2023-03-29T02:06:41.822Z,3.90
2023-03-29T02:09:09.456Z,5.27
2023-03-29T02:11:37.130Z,4.10
2023-03-29T02:14:04.728Z,3.90
2023-03-29T02:16:39.117Z,4.50
2023-03-29T02:19:08.201Z,4.60
2023-03-29T02:21:42.394Z,3.80
2023-03-29T02:24:11.570Z,3.43
2023-03-29T02:26:39.317Z,3.43
2023-03-29T02:29:06.591Z,3.83
2023-03-29T02:31:37.378Z,3.80
2023-03-29T02:34:21.010Z,3.47
2023-03-29T02:36:56.961Z,4.10
2023-03-29T02:39:25.440Z,3.37
2023-03-29T02:41:54.856Z,3.23
2023-03-29T02:44:23.450Z,3.53
2023-03-29T02:46:51.939Z,3.20
2023-03-29T02:49:19.696Z,3.30
2023-03-29T02:51:47.809Z,3.40
2023-03-29T02:54:19.706Z,3.80
2023-03-29T02:56:49.324Z,3.10
2023-03-29T02:59:17.375Z,3.10
2023-03-29T03:01:45.142Z,3.47
2023-03-29T03:04:13.476Z,3.30
2023-03-29T03:06:41.466Z,3.50
2023-03-29T03:09:09.965Z,3.40
2023-03-29T03:11:37.265Z,3.30
2023-03-29T03:14:05.800Z,3.20
2023-03-29T03:16:33.095Z,3.53
2023-03-29T03:19:00.972Z,3.10
2023-03-29T03:21:28.591Z,3.30
2023-03-29T03:23:55.933Z,3.23
2023-03-29T03:26:25.053Z,3.20
2023-03-29T03:28:52.416Z,3.10
2023-03-29T03:31:21.534Z,3.40
2023-03-29T03:33:49.064Z,3.97
2023-03-29T03:36:16.372Z,3.03
2023-03-29T03:38:44.194Z,3.00
2023-03-29T03:41:11.845Z,3.30
2023-03-29T03:43:42.475Z,3.10
2023-03-29T03:46:10.570Z,2.87
2023-03-29T03:48:37.877Z,2.90
2023-03-29T03:51:05.564Z,3.07
2023-03-29T03:53:34.066Z,3.20
2023-03-29T03:56:02.401Z,2.73
2023-03-29T03:58:33.037Z,3.07
2023-03-29T04:01:00.468Z,2.90
2023-03-29T04:03:28.132Z,2.90
2023-03-29T04:05:56.331Z,3.00
2023-03-29T04:08:23.579Z,3.50
2023-03-29T04:10:54.854Z,2.93
2023-03-29T04:13:22.725Z,2.90
2023-03-29T04:15:50.368Z,3.13
2023-03-29T04:18:17.880Z,3.13
2023-03-29T04:20:45.998Z,3.10
2023-03-29T04:23:13.770Z,2.93
2023-03-29T04:25:41.759Z,3.40
2023-03-29T04:28:09.685Z,3.20
2023-03-29T04:30:37.099Z,2.93
2023-03-29T04:33:04.915Z,3.40
2023-03-29T04:35:32.566Z,2.93
2023-03-29T04:37:59.904Z,3.53
2023-03-29T04:40:28.205Z,3.40
2023-03-29T04:42:57.006Z,3.50
2023-03-29T04:45:24.489Z,4.33
2023-03-29T04:47:54.121Z,3.47
2023-03-29T04:50:21.823Z,3.53
2023-03-29T04:52:50.974Z,3.43
2023-03-29T04:55:18.337Z,3.23
2023-03-29T04:57:46.209Z,3.90
2023-03-29T05:00:17.337Z,3.20
2023-03-29T05:02:45.530Z,3.00
2023-03-29T05:05:14.277Z,3.63
2023-03-29T05:07:42.035Z,7.60
2023-03-29T05:10:09.794Z,11.90
2023-03-29T05:12:37.678Z,4.37
2023-03-29T05:15:05.890Z,5.27
2023-03-29T05:17:33.430Z,4.20
2023-03-29T05:20:01.634Z,4.57
2023-03-29T05:22:29.810Z,7.80
2023-03-29T05:24:57.701Z,6.73
2023-03-29T05:27:25.559Z,5.17
2023-03-29T05:29:53.116Z,4.57
2023-03-29T05:32:20.846Z,4.27
2023-03-29T05:34:48.601Z,3.17
2023-03-29T05:37:16.111Z,2.43
2023-03-29T05:39:44.098Z,2.83
2023-03-29T05:42:14.016Z,2.60
2023-03-29T05:44:41.488Z,2.60
2023-03-29T05:47:08.766Z,3.03
2023-03-29T05:49:38.273Z,9.07
2023-03-29T05:52:06.757Z,6.60
2023-03-29T05:54:34.366Z,3.87
2023-03-29T05:57:01.780Z,2.80
2023-03-29T05:59:29.727Z,5.20
2023-03-29T06:01:57.352Z,3.03
2023-03-29T06:04:25.532Z,4.13
2023-03-29T06:06:55.992Z,3.80
2023-03-29T06:09:24.374Z,2.90
2023-03-29T06:11:52.280Z,2.90
2023-03-29T06:14:19.557Z,2.30
2023-03-29T06:16:47.786Z,2.33
2023-03-29T06:19:15.370Z,2.60
2023-03-29T06:21:42.755Z,2.63
2023-03-29T06:24:10.629Z,2.50
2023-03-29T06:26:37.911Z,3.10
2023-03-29T06:29:05.235Z,2.93
2023-03-29T06:31:32.690Z,2.80
2023-03-29T06:34:01.701Z,2.80
2023-03-29T06:36:29.295Z,2.90
2023-03-29T06:38:56.723Z,2.40
2023-03-29T06:41:23.940Z,2.40
2023-03-29T06:43:51.367Z,2.10
2023-03-29T06:46:19.064Z,2.50
2023-03-29T06:48:48.554Z,2.13
2023-03-29T06:51:16.711Z,2.30
2023-03-29T06:53:43.987Z,2.20
2023-03-29T06:56:11.301Z,3.00
2023-03-29T06:58:39.721Z,2.40
2023-03-29T07:01:07.495Z,2.07
2023-03-29T07:03:35.409Z,3.00
2023-03-29T07:06:09.750Z,1.90
2023-03-29T07:08:43.393Z,1.97
2023-03-29T07:11:13.269Z,2.80
2023-03-29T07:13:42.614Z,2.67
2023-03-29T07:16:12.922Z,3.03
2023-03-29T07:18:44.198Z,3.20
2023-03-29T07:21:13.054Z,3.13
2023-03-29T07:23:41.081Z,3.10
2023-03-29T07:26:08.690Z,5.87
2023-03-29T07:28:37.561Z,18.43
2023-03-29T07:31:06.883Z,7.00
2023-03-29T07:33:34.752Z,3.50
2023-03-29T07:36:03.426Z,4.67
2023-03-29T07:38:31.927Z,3.63
2023-03-29T07:40:59.340Z,3.90
2023-03-29T07:43:26.687Z,3.53
2023-03-29T07:45:54.162Z,4.10
2023-03-29T07:48:22.197Z,6.50
2023-03-29T07:50:49.486Z,3.60
2023-03-29T07:53:17.361Z,4.73
2023-03-29T07:55:47.676Z,3.40
2023-03-29T07:58:15.713Z,3.57
2023-03-29T08:00:43.835Z,3.53
2023-03-29T08:03:16.724Z,3.50
2023-03-29T08:05:44.073Z,3.10
2023-03-29T08:08:11.461Z,3.30
2023-03-29T08:10:39.544Z,3.40
2023-03-29T08:13:08.569Z,2.97
2023-03-29T08:15:37.880Z,2.90
2023-03-29T08:18:05.659Z,2.97
2023-03-29T08:20:32.955Z,3.33
2023-03-29T08:23:00.270Z,3.67
2023-03-29T08:25:27.675Z,3.33
2023-03-29T08:27:54.973Z,3.73
2023-03-29T08:30:22.384Z,3.50
2023-03-29T08:32:52.172Z,3.17
2023-03-29T08:35:21.625Z,3.17
2023-03-29T08:37:49.056Z,3.10
2023-03-29T08:40:20.304Z,3.00
2023-03-29T08:42:51.094Z,2.50
2023-03-29T08:45:22.084Z,2.70
2023-03-29T08:47:53.087Z,2.43
2023-03-29T08:50:22.006Z,2.67
2023-03-29T08:52:53.840Z,2.57
2023-03-29T08:55:31.830Z,2.50
2023-03-29T08:58:01.029Z,2.73
2023-03-29T09:00:39.746Z,4.43
2023-03-29T09:03:17.562Z,2.83
2023-03-29T09:05:49.280Z,2.60
2023-03-29T09:08:18.285Z,15.80
2023-03-29T09:10:48.688Z,6.70
2023-03-29T09:13:31.865Z,4.50
2023-03-29T09:16:06.135Z,8.93
2023-03-29T09:18:53.032Z,3.90
2023-03-29T09:21:25.426Z,2.90
2023-03-29T09:24:02.135Z,2.77
2023-03-29T09:26:36.023Z,2.40
2023-03-29T09:29:28.974Z,2.67
2023-03-29T09:31:56.961Z,2.60
2023-03-29T09:34:30.817Z,2.50
2023-03-29T09:37:09.175Z,2.40
2023-03-29T09:39:38.001Z,2.27
2023-03-29T09:42:09.050Z,2.80
2023-03-29T09:44:57.365Z,2.47
2023-03-29T09:47:28.177Z,2.50
2023-03-29T09:50:00.730Z,3.27
2023-03-29T09:52:28.456Z,2.57
2023-03-29T09:54:55.907Z,3.40
2023-03-29T09:57:23.389Z,3.07
2023-03-29T09:59:51.762Z,3.20
2023-03-29T10:02:20.584Z,2.93
2023-03-29T10:04:55.257Z,2.37
2023-03-29T10:07:23.138Z,2.40
2023-03-29T10:09:52.727Z,2.87
2023-03-29T10:12:20.768Z,2.70
2023-03-29T10:14:53.938Z,2.43
2023-03-29T10:17:26.796Z,2.30
2023-03-29T10:19:58.442Z,2.27
2023-03-29T10:22:34.831Z,2.37
2023-03-29T10:25:02.315Z,2.40
2023-03-29T10:27:31.529Z,2.27
2023-03-29T10:30:00.496Z,2.93
2023-03-29T10:32:27.806Z,2.20
2023-03-29T10:34:55.562Z,2.40
2023-03-29T10:37:23.965Z,2.10
2023-03-29T10:39:51.962Z,2.27
2023-03-29T10:42:20.549Z,3.03
2023-03-29T10:44:56.127Z,1.97
2023-03-29T10:47:24.012Z,1.90
2023-03-29T10:49:56.451Z,2.30
2023-03-29T10:52:24.365Z,2.13
2023-03-29T10:54:53.533Z,2.80
2023-03-29T10:57:41.387Z,1.55
2023-03-29T11:00:17.046Z,1.38
2023-03-29T11:02:53.609Z,1.15
2023-03-29T11:05:26.197Z,2.42
2023-03-29T11:08:02.622Z,1.30
2023-03-29T11:10:41.333Z,1.30
2023-03-29T11:13:27.444Z,1.40
2023-03-29T11:16:13.706Z,1.40
2023-03-29T11:18:44.117Z,1.17
2023-03-29T11:21:30.326Z,1.00
2023-03-29T11:23:57.586Z,2.50
2023-03-29T11:26:27.554Z,3.73
2023-03-29T11:29:10.554Z,2.33
2023-03-29T11:31:44.135Z,1.27
2023-03-29T11:34:27.856Z,1.53
2023-03-29T11:37:14.473Z,1.70
2023-03-29T11:40:05.760Z,1.20
2023-03-29T11:42:34.966Z,1.30
2023-03-29T11:45:05.435Z,1.20
2023-03-29T11:47:33.934Z,3.90
2023-03-29T11:50:23.015Z,1.77
2023-03-29T11:52:54.458Z,2.50
2023-03-29T11:55:28.006Z,2.23
2023-03-29T11:58:07.896Z,2.50
2023-03-29T12:00:43.607Z,2.00
2023-03-29T12:03:11.051Z,1.40
2023-03-29T12:05:50.318Z,3.70
2023-03-29T12:08:30.878Z,1.25
2023-03-29T12:10:58.156Z,2.30
2023-03-29T12:13:28.012Z,1.20
2023-03-29T12:16:00.996Z,1.40
2023-03-29T12:18:31.328Z,1.23
2023-03-29T12:21:04.626Z,1.23
2023-03-29T12:23:32.733Z,1.60
2023-03-29T12:26:10.478Z,1.02
2023-03-29T12:28:37.729Z,1.00
2023-03-29T12:31:12.888Z,1.20
2023-03-29T12:33:40.158Z,1.10
2023-03-29T12:36:16.632Z,1.20
2023-03-29T12:38:46.390Z,1.10
2023-03-29T12:41:17.291Z,1.23
2023-03-29T12:43:44.635Z,1.37
2023-03-29T12:46:16.370Z,1.00
2023-03-29T12:48:45.416Z,2.40
2023-03-29T12:51:17.324Z,1.55
2023-03-29T12:53:53.378Z,1.52
2023-03-29T12:56:23.692Z,1.20
2023-03-29T12:59:11.457Z,1.20
2023-03-29T13:01:41.489Z,1.23
2023-03-29T13:04:17.609Z,1.42
2023-03-29T13:06:47.959Z,1.20
2023-03-29T13:09:23.495Z,1.00
2023-03-29T13:11:58.782Z,1.30
2023-03-29T13:14:33.967Z,1.23
2023-03-29T13:17:17.719Z,1.17
2023-03-29T13:19:45.933Z,1.23
2023-03-29T13:22:13.225Z,1.40
2023-03-29T13:25:01.813Z,1.08
2023-03-29T13:27:49.586Z,1.63
2023-03-29T13:30:23.044Z,1.20
2023-03-29T13:33:05.299Z,1.10
2023-03-29T13:35:46.309Z,1.10
2023-03-29T13:38:16.615Z,1.40
2023-03-29T13:40:46.917Z,1.10
2023-03-29T13:43:20.364Z,1.20
2023-03-29T13:45:59.911Z,0.93
2023-03-29T13:48:28.917Z,1.33
2023-03-29T13:51:08.142Z,1.10
2023-03-29T13:53:53.818Z,1.95
2023-03-29T13:56:25.477Z,0.90
2023-03-29T13:58:55.423Z,0.90
2023-03-29T14:01:23.382Z,1.55
2023-03-29T14:03:54.204Z,1.20
2023-03-29T14:06:30.077Z,1.20
2023-03-29T14:08:57.626Z,4.43
2023-03-29T14:11:31.550Z,3.10
2023-03-29T14:14:00.191Z,2.42
2023-03-29T14:16:38.362Z,2.47
2023-03-29T14:19:07.773Z,1.30
2023-03-29T14:21:35.084Z,2.40
2023-03-29T14:24:02.734Z,1.42
2023-03-29T14:26:31.712Z,1.30
2023-03-29T14:29:01.357Z,1.20
2023-03-29T14:31:33.429Z,1.20
2023-03-29T14:34:01.609Z,2.25
2023-03-29T14:36:30.099Z,3.47
2023-03-29T14:38:59.650Z,8.82
2023-03-29T14:41:31.546Z,2.75
2023-03-29T14:43:59.692Z,5.13
2023-03-29T14:46:27.526Z,2.35
2023-03-29T14:48:55.464Z,2.08
2023-03-29T14:51:27.141Z,4.22
2023-03-29T14:53:54.492Z,1.70
2023-03-29T14:56:24.544Z,1.20
2023-03-29T14:58:54.525Z,1.33
2023-03-29T15:01:23.681Z,1.00
2023-03-29T15:03:54.971Z,1.10
2023-03-29T15:06:23.865Z,1.27
2023-03-29T15:09:02.043Z,1.17
2023-03-29T15:11:32.260Z,1.00
2023-03-29T15:14:04.345Z,1.00
2023-03-29T15:16:33.514Z,1.23
2023-03-29T15:19:01.850Z,1.38
2023-03-29T15:21:34.565Z,1.15
2023-03-29T15:24:03.085Z,1.30
2023-03-29T15:26:32.486Z,1.40
2023-03-29T15:29:08.143Z,1.42
2023-03-29T15:31:42.490Z,1.23
2023-03-29T15:34:14.297Z,1.30
2023-03-29T15:36:42.702Z,1.20
2023-03-29T15:39:14.066Z,1.05
2023-03-29T15:41:41.868Z,1.10
2023-03-29T15:44:09.416Z,1.40
2023-03-29T15:46:37.050Z,1.13
2023-03-29T15:49:10.512Z,1.92
2023-03-29T15:51:38.057Z,1.80
2023-03-29T15:54:06.515Z,1.80
2023-03-29T15:56:37.119Z,1.30
2023-03-29T15:59:07.588Z,1.50
2023-03-29T16:01:37.652Z,1.30
2023-03-29T16:04:11.204Z,1.50
2023-03-29T16:06:38.961Z,1.45
2023-03-29T16:09:07.732Z,1.52
2023-03-29T16:11:35.843Z,1.60
2023-03-29T16:14:03.207Z,1.70
2023-03-29T16:16:30.607Z,1.52
2023-03-29T16:18:58.086Z,1.52
2023-03-29T16:21:26.492Z,1.52
2023-03-29T16:23:53.774Z,1.70
2023-03-29T16:26:22.344Z,1.73
2023-03-29T16:28:49.909Z,1.80
2023-03-29T16:31:18.018Z,1.90
2023-03-29T16:33:45.706Z,1.50
2023-03-29T16:36:13.287Z,1.70
2023-03-29T16:38:40.942Z,1.88
2023-03-29T16:41:08.690Z,2.05
2023-03-29T16:43:38.566Z,2.10
2023-03-29T16:46:09.245Z,1.70
2023-03-29T16:48:37.084Z,1.50
2023-03-29T16:51:04.431Z,1.50
2023-03-29T16:53:31.704Z,1.35
2023-03-29T16:55:59.127Z,1.55
2023-03-29T16:58:27.185Z,1.67
2023-03-29T17:00:54.485Z,1.58
2023-03-29T17:03:21.772Z,1.88
2023-03-29T17:05:50.348Z,1.95
2023-03-29T17:08:18.046Z,1.58
2023-03-29T17:10:45.347Z,1.73
2023-03-29T17:13:13.331Z,1.80
2023-03-29T17:15:40.672Z,1.83
2023-03-29T17:18:08.103Z,1.70
2023-03-29T17:20:35.721Z,1.83
2023-03-29T17:23:03.036Z,1.98
2023-03-29T17:25:30.873Z,2.50
2023-03-29T17:27:58.134Z,2.10
2023-03-29T17:30:25.429Z,1.60
2023-03-29T17:32:53.747Z,1.85
2023-03-29T17:35:21.067Z,1.95
2023-03-29T17:37:48.660Z,1.60
2023-03-29T17:40:15.918Z,2.38
2023-03-29T17:42:43.886Z,2.67
2023-03-29T17:45:11.889Z,1.90
2023-03-29T17:47:39.673Z,2.40
2023-03-29T17:50:07.472Z,3.35
2023-03-29T17:52:35.366Z,2.43
2023-03-29T17:55:03.408Z,1.77
2023-03-29T17:57:30.703Z,1.80
2023-03-29T17:59:58.161Z,1.70
2023-03-29T18:02:26.520Z,2.08
2023-03-29T18:04:54.068Z,1.83
2023-03-29T18:07:21.476Z,1.93
2023-03-29T18:09:49.068Z,2.33
2023-03-29T18:12:16.715Z,2.22
2023-03-29T18:14:44.098Z,2.43
2023-03-29T18:17:11.354Z,3.33
2023-03-29T18:19:38.922Z,2.47
2023-03-29T18:22:06.970Z,2.80
2023-03-29T18:24:34.255Z,2.28
2023-03-29T18:27:02.512Z,2.50
2023-03-29T18:29:34.020Z,2.30
2023-03-29T18:32:02.989Z,2.60
2023-03-29T18:34:30.760Z,11.50
2023-03-29T18:36:58.152Z,3.87
2023-03-29T18:39:25.901Z,2.17
2023-03-29T18:41:53.125Z,2.60
2023-03-29T18:44:22.107Z,2.20
2023-03-29T18:46:49.340Z,2.30
2023-03-29T18:49:16.579Z,2.63
2023-03-29T18:51:44.188Z,2.40
2023-03-29T18:54:11.992Z,2.30
2023-03-29T18:56:39.327Z,2.00
2023-03-29T18:59:06.936Z,2.63
2023-03-29T19:01:34.845Z,2.00
2023-03-29T19:04:02.185Z,1.90
2023-03-29T19:06:29.616Z,2.03
2023-03-29T19:08:58.361Z,2.10
2023-03-29T19:11:27.692Z,2.10
2023-03-29T19:13:56.851Z,1.93
2023-03-29T19:16:24.334Z,2.23
2023-03-29T19:18:52.244Z,1.80
2023-03-29T19:21:20.563Z,1.87
2023-03-29T19:23:51.767Z,2.17
2023-03-29T19:26:19.580Z,2.37
2023-03-29T19:28:46.925Z,2.27
2023-03-29T19:31:14.327Z,3.20
2023-03-29T19:33:41.929Z,2.60
2023-03-29T19:36:09.664Z,5.63
2023-03-29T19:38:37.519Z,10.30
2023-03-29T19:41:07.627Z,4.10
2023-03-29T19:43:35.354Z,2.00
2023-03-29T19:46:08.475Z,2.30
2023-03-29T19:48:36.009Z,1.97
2023-03-29T19:51:04.081Z,1.50
2023-03-29T19:53:32.429Z,1.77
2023-03-29T19:56:00.186Z,1.90
2023-03-29T19:58:27.555Z,1.93
2023-03-29T20:00:58.167Z,1.70
2023-03-29T20:03:28.699Z,1.60
2023-03-29T20:05:56.957Z,1.77
2023-03-29T20:08:27.020Z,1.90
2023-03-29T20:10:58.565Z,1.90
2023-03-29T20:13:37.580Z,2.10
2023-03-29T20:16:07.094Z,2.13
2023-03-29T20:18:34.396Z,2.07
2023-03-29T20:21:02.371Z,1.73
2023-03-29T20:23:30.053Z,1.90
2023-03-29T20:25:57.296Z,2.30
2023-03-29T20:28:25.310Z,1.83
2023-03-29T20:30:52.898Z,2.00
2023-03-29T20:33:21.140Z,1.70
2023-03-29T20:35:49.453Z,2.13
2023-03-29T20:38:17.004Z,2.00
2023-03-29T20:40:46.015Z,2.20
2023-03-29T20:43:18.720Z,1.93
2023-03-29T20:45:53.876Z,2.10
2023-03-29T20:48:23.565Z,1.97
2023-03-29T20:50:51.492Z,1.90
2023-03-29T20:53:20.649Z,1.90
2023-03-29T20:55:48.421Z,2.60
2023-03-29T20:58:16.106Z,2.10
2023-03-29T21:00:44.273Z,1.90
2023-03-29T21:03:12.267Z,2.00
2023-03-29T21:05:39.703Z,2.00
2023-03-29T21:08:09.086Z,1.80
2023-03-29T21:10:36.602Z,2.20
2023-03-29T21:13:03.906Z,2.30
2023-03-29T21:15:32.181Z,2.20
2023-03-29T21:17:59.784Z,2.60
2023-03-29T21:20:27.697Z,1.93
2023-03-29T21:22:55.360Z,2.10
2023-03-29T21:25:22.748Z,2.10
2023-03-29T21:27:50.666Z,2.17
2023-03-29T21:30:18.123Z,2.30
2023-03-29T21:32:45.720Z,1.83
2023-03-29T21:35:13.214Z,1.90
2023-03-29T21:37:40.682Z,2.10
2023-03-29T21:40:09.325Z,2.20
2023-03-29T21:42:37.070Z,2.00
2023-03-29T21:45:04.651Z,1.90
2023-03-29T21:47:33.073Z,2.03
2023-03-29T21:50:00.471Z,2.33
2023-03-29T21:52:27.745Z,1.67
2023-03-29T21:54:55.189Z,2.40
2023-03-29T21:57:22.539Z,2.33
2023-03-29T21:59:50.122Z,2.30
2023-03-29T22:02:17.722Z,2.10
2023-03-29T22:04:45.387Z,1.90
2023-03-29T22:07:13.998Z,2.63
2023-03-29T22:09:41.444Z,2.27
2023-03-29T22:12:10.030Z,2.33
2023-03-29T22:14:37.518Z,1.80
2023-03-29T22:17:06.320Z,2.30
2023-03-29T22:19:39.241Z,2.43
2023-03-29T22:22:07.525Z,2.07
2023-03-29T22:24:34.771Z,2.33
2023-03-29T22:27:02.052Z,2.43
2023-03-29T22:29:29.311Z,2.37
2023-03-29T22:31:56.697Z,2.20
2023-03-29T22:34:24.033Z,2.50
2023-03-29T22:36:51.700Z,2.50
2023-03-29T22:39:19.406Z,2.63
2023-03-29T22:41:46.847Z,2.20
2023-03-29T22:44:14.188Z,3.03
2023-03-29T22:46:41.947Z,2.30
2023-03-29T22:49:09.155Z,2.40
2023-03-29T22:51:40.723Z,3.07
2023-03-29T22:54:08.299Z,2.43
2023-03-29T22:56:35.695Z,2.77
2023-03-29T22:59:02.962Z,2.30
2023-03-29T23:01:30.372Z,2.20
2023-03-29T23:03:57.763Z,3.03
2023-03-29T23:06:25.261Z,2.27
2023-03-29T23:08:52.753Z,2.33
2023-03-29T23:11:20.010Z,2.37
2023-03-29T23:13:53.932Z,2.60
2023-03-29T23:16:21.568Z,2.80
2023-03-29T23:18:49.264Z,2.60
2023-03-29T23:21:16.743Z,2.60
2023-03-29T23:23:44.942Z,2.63
2023-03-29T23:26:12.375Z,2.30
2023-03-29T23:28:41.115Z,2.87
2023-03-29T23:31:10.380Z,2.40
2023-03-29T23:33:40.831Z,2.67
2023-03-29T23:36:09.534Z,2.97
2023-03-29T23:38:37.729Z,2.47
2023-03-29T23:41:06.350Z,2.80
2023-03-29T23:43:35.404Z,2.70
2023-03-29T23:46:07.250Z,2.47
2023-03-29T23:48:34.865Z,2.73
2023-03-29T23:51:03.035Z,2.50
2023-03-29T23:53:32.009Z,2.73
2023-03-29T23:56:03.084Z,2.50
2023-03-29T23:58:31.815Z,2.73
